createdAt,value
2023-05-10T00:02:15.371Z,95.08
2023-05-10T00:04:49.513Z,95.35
2023-05-10T00:07:22.702Z,94.85
2023-05-10T00:09:55.485Z,93.36
2023-05-10T00:12:28.317Z,95.30
2023-05-10T00:15:01.098Z,95.51
2023-05-10T00:17:33.947Z,95.31
2023-05-10T00:20:09.272Z,96.12
2023-05-10T00:22:42.468Z,96.71
2023-05-10T00:25:15.347Z,94.46
2023-05-10T00:27:48.399Z,95.12
2023-05-10T00:30:21.442Z,95.74
2023-05-10T00:32:54.437Z,95.80
2023-05-10T00:35:28.818Z,96.44
2023-05-10T00:38:01.616Z,96.11
2023-05-10T00:40:34.448Z,96.89
2023-05-10T00:43:11.066Z,97.20
2023-05-10T00:45:44.170Z,97.46
2023-05-10T00:48:18.587Z,96.73
2023-05-10T00:50:52.885Z,96.05
2023-05-10T00:53:26.811Z,95.79
2023-05-10T00:56:00.332Z,95.17
2023-05-10T00:58:33.265Z,96.17
2023-05-10T01:01:06.845Z,96.08
2023-05-10T01:03:40.972Z,96.17
2023-05-10T01:06:15.295Z,96.61
2023-05-10T01:08:48.607Z,96.11
2023-05-10T01:11:21.784Z,96.73
2023-05-10T01:14:00.333Z,95.05
2023-05-10T01:16:38.368Z,94.70
2023-05-10T01:19:18.931Z,95.70
2023-05-10T01:22:01.566Z,95.04
2023-05-10T01:25:16.099Z,95.68
2023-05-10T01:28:17.203Z,95.51
2023-05-10T01:31:10.546Z,96.14
2023-05-10T01:33:52.488Z,95.23
2023-05-10T01:36:32.473Z,94.93
2023-05-10T01:39:13.547Z,94.45
2023-05-10T01:41:51.706Z,95.52
2023-05-10T01:44:33.444Z,96.46
2023-05-10T01:47:12.028Z,96.18
2023-05-10T01:49:51.215Z,95.43
2023-05-10T01:52:32.137Z,94.58
2023-05-10T01:55:08.274Z,94.68
2023-05-10T01:57:44.260Z,94.09
2023-05-10T02:00:18.276Z,93.79
2023-05-10T02:02:52.648Z,95.27
2023-05-10T02:05:28.693Z,94.33
2023-05-10T02:08:04.991Z,94.44
2023-05-10T02:10:38.850Z,94.75
2023-05-10T02:13:13.465Z,94.09
2023-05-10T02:15:50.279Z,91.82
2023-05-10T02:18:25.942Z,94.07
2023-05-10T02:21:01.580Z,92.67
2023-05-10T02:23:35.944Z,92.21
2023-05-10T02:26:09.968Z,93.08
2023-05-10T02:28:44.332Z,93.36
2023-05-10T02:31:17.630Z,92.90
2023-05-10T02:33:51.197Z,92.85
2023-05-10T02:36:28.479Z,92.93
2023-05-10T02:39:04.062Z,93.63
2023-05-10T02:41:38.174Z,92.82
2023-05-10T02:44:11.398Z,93.28
2023-05-10T02:46:44.495Z,93.75
2023-05-10T02:49:17.680Z,93.57
2023-05-10T02:51:57.611Z,94.46
2023-05-10T02:54:38.622Z,94.70
2023-05-10T02:57:19.033Z,94.14
2023-05-10T02:59:52.364Z,91.96
2023-05-10T03:02:25.329Z,92.62
2023-05-10T03:04:58.314Z,91.63
2023-05-10T03:07:33.368Z,94.79
2023-05-10T03:10:06.760Z,94.67
2023-05-10T03:12:53.883Z,95.30
2023-05-10T03:15:35.608Z,96.31
2023-05-10T03:18:12.723Z,96.06
2023-05-10T03:20:50.589Z,96.02
2023-05-10T03:23:32.039Z,96.79
2023-05-10T03:26:06.380Z,95.66
2023-05-10T03:28:40.489Z,95.58
2023-05-10T03:31:14.380Z,95.67
2023-05-10T03:33:51.421Z,95.25
2023-05-10T03:36:29.574Z,97.14
2023-05-10T03:39:04.310Z,98.15
2023-05-10T03:41:37.244Z,95.94
2023-05-10T03:44:10.098Z,96.61
2023-05-10T03:46:43.078Z,95.53
2023-05-10T03:49:17.078Z,96.54
2023-05-10T03:51:50.752Z,96.97
2023-05-10T03:54:24.986Z,98.20
2023-05-10T03:56:57.779Z,98.25
2023-05-10T03:59:30.828Z,98.75
2023-05-10T04:02:03.962Z,96.73
2023-05-10T04:04:37.096Z,97.10
2023-05-10T04:07:11.260Z,97.97
2023-05-10T04:09:45.939Z,98.33
2023-05-10T04:12:18.714Z,97.74
2023-05-10T04:14:52.050Z,98.40
2023-05-10T04:17:24.826Z,97.37
2023-05-10T04:19:58.055Z,97.83
2023-05-10T04:22:30.816Z,98.75
2023-05-10T04:25:05.774Z,98.29
2023-05-10T04:27:39.114Z,98.88
2023-05-10T04:30:12.937Z,98.52
2023-05-10T04:32:45.938Z,98.30
2023-05-10T04:35:18.920Z,97.93
2023-05-10T04:37:52.346Z,98.51
2023-05-10T04:40:26.443Z,98.38
2023-05-10T04:42:59.195Z,98.22
2023-05-10T04:45:31.978Z,97.55
2023-05-10T04:48:05.054Z,98.74
2023-05-10T04:50:37.880Z,98.55
2023-05-10T04:53:10.699Z,99.06
2023-05-10T04:55:45.113Z,98.17
2023-05-10T04:58:18.152Z,98.86
2023-05-10T05:00:50.945Z,98.14
2023-05-10T05:03:24.120Z,99.09
2023-05-10T05:05:56.916Z,99.15
2023-05-10T05:08:29.837Z,99.02
2023-05-10T05:11:04.130Z,98.46
2023-05-10T05:13:36.927Z,98.21
2023-05-10T05:16:09.994Z,97.56
2023-05-10T05:18:42.781Z,98.59
2023-05-10T05:21:16.928Z,98.45
2023-05-10T05:23:49.690Z,98.30
2023-05-10T05:26:23.866Z,98.14
2023-05-10T05:28:56.766Z,97.24
2023-05-10T05:31:29.663Z,98.32
2023-05-10T05:34:02.495Z,97.25
2023-05-10T05:36:39.269Z,98.66
2023-05-10T05:39:12.020Z,98.21
2023-05-10T05:41:47.223Z,99.28
2023-05-10T05:44:20.004Z,97.71
2023-05-10T05:46:52.835Z,98.01
2023-05-10T05:49:25.851Z,96.93
2023-05-10T05:52:00.881Z,98.51
2023-05-10T05:54:33.892Z,98.93
2023-05-10T05:57:08.391Z,97.84
2023-05-10T05:59:44.652Z,98.76
2023-05-10T06:02:20.899Z,98.75
2023-05-10T06:04:53.731Z,98.74
2023-05-10T06:07:26.732Z,98.25
2023-05-10T06:09:59.793Z,97.94
2023-05-10T06:12:33.957Z,98.57
2023-05-10T06:15:07.644Z,98.20
2023-05-10T06:17:41.165Z,98.27
2023-05-10T06:20:15.053Z,97.83
2023-05-10T06:22:48.125Z,97.92
2023-05-10T06:25:21.040Z,96.91
2023-05-10T06:27:58.525Z,95.94
2023-05-10T06:30:31.586Z,96.40
2023-05-10T06:33:04.805Z,95.40
2023-05-10T06:35:37.822Z,96.87
2023-05-10T06:38:10.592Z,95.85
2023-05-10T06:40:44.053Z,96.13
2023-05-10T06:43:18.408Z,96.21
2023-05-10T06:45:51.321Z,94.97
2023-05-10T06:48:24.345Z,94.93
2023-05-10T06:50:57.162Z,94.99
2023-05-10T06:53:31.317Z,95.43
2023-05-10T06:56:04.695Z,94.33
2023-05-10T06:58:38.972Z,94.03
2023-05-10T07:01:11.929Z,92.50
2023-05-10T07:03:44.829Z,91.06
2023-05-10T07:06:29.297Z,90.86
2023-05-10T07:09:06.091Z,90.18
2023-05-10T07:11:39.324Z,89.92
2023-05-10T07:14:13.518Z,89.95
2023-05-10T07:16:46.440Z,89.81
2023-05-10T07:19:19.474Z,90.45
2023-05-10T07:21:52.343Z,87.75
2023-05-10T07:24:25.317Z,87.28
2023-05-10T07:26:58.116Z,87.35
2023-05-10T07:29:32.255Z,86.04
2023-05-10T07:32:05.393Z,83.19
2023-05-10T07:34:38.226Z,84.43
2023-05-10T07:37:11.723Z,84.35
2023-05-10T07:39:44.517Z,81.22
2023-05-10T07:42:17.463Z,79.76
2023-05-10T07:44:52.007Z,82.38
2023-05-10T07:47:24.813Z,82.69
2023-05-10T07:49:57.645Z,82.67
2023-05-10T07:52:30.402Z,82.04
2023-05-10T07:55:03.246Z,79.94
2023-05-10T07:57:36.135Z,81.36
2023-05-10T08:00:14.613Z,83.46
2023-05-10T08:02:48.501Z,82.06
2023-05-10T08:05:21.330Z,82.63
2023-05-10T08:07:54.178Z,83.05
2023-05-10T08:10:27.460Z,85.01
2023-05-10T08:13:00.572Z,84.45
2023-05-10T08:15:34.853Z,85.07
2023-05-10T08:18:07.810Z,83.96
2023-05-10T08:20:40.630Z,83.11
2023-05-10T08:23:14.328Z,83.57
2023-05-10T08:25:47.125Z,83.44
2023-05-10T08:28:19.880Z,80.38
2023-05-10T08:30:54.405Z,79.34
2023-05-10T08:33:27.347Z,79.65
2023-05-10T08:36:00.247Z,77.78
2023-05-10T08:38:33.326Z,74.30
2023-05-10T08:41:07.649Z,74.16
2023-05-10T08:43:42.444Z,74.03
2023-05-10T08:46:18.230Z,74.82
2023-05-10T08:48:52.484Z,76.89
2023-05-10T08:51:27.699Z,75.86
2023-05-10T08:54:01.482Z,73.80
2023-05-10T08:56:34.406Z,76.06
2023-05-10T08:59:07.261Z,73.79
2023-05-10T09:01:44.972Z,74.85
2023-05-10T09:04:18.050Z,74.91
2023-05-10T09:06:50.960Z,75.40
2023-05-10T09:09:24.131Z,76.30
2023-05-10T09:11:57.272Z,76.29
2023-05-10T09:14:31.122Z,78.01
2023-05-10T09:17:06.427Z,77.21
2023-05-10T09:19:40.175Z,77.60
2023-05-10T09:22:13.664Z,76.55
2023-05-10T09:24:46.817Z,76.61
2023-05-10T09:27:28.226Z,75.79
2023-05-10T09:30:01.143Z,74.64
2023-05-10T09:32:43.152Z,74.81
2023-05-10T09:35:18.504Z,75.57
2023-05-10T09:37:52.526Z,74.25
2023-05-10T09:40:27.622Z,72.49
2023-05-10T09:43:01.324Z,72.84
2023-05-10T09:45:38.248Z,72.28
2023-05-10T09:48:17.027Z,71.65
2023-05-10T09:51:15.751Z,71.82
2023-05-10T09:54:12.284Z,68.48
2023-05-10T09:56:46.616Z,68.66
2023-05-10T09:59:21.222Z,66.79
2023-05-10T10:01:54.851Z,68.23
2023-05-10T10:04:30.844Z,69.12
2023-05-10T10:07:06.117Z,67.59
2023-05-10T10:09:39.040Z,67.57
2023-05-10T10:12:12.024Z,69.45
2023-05-10T10:14:45.413Z,72.08
2023-05-10T10:17:19.439Z,72.31
2023-05-10T10:19:54.350Z,72.45
2023-05-10T10:22:27.659Z,72.32
2023-05-10T10:25:01.920Z,72.77
2023-05-10T10:27:44.540Z,70.78
2023-05-10T10:30:28.128Z,70.59
2023-05-10T10:33:28.402Z,69.79
2023-05-10T10:36:05.322Z,70.10
2023-05-10T10:38:41.056Z,69.57
2023-05-10T10:41:31.058Z,69.23
2023-05-10T10:44:35.680Z,67.09
2023-05-10T10:47:25.870Z,67.89
2023-05-10T10:50:07.599Z,68.57
2023-05-10T10:52:42.540Z,69.04
2023-05-10T10:55:19.131Z,70.34
2023-05-10T10:57:54.426Z,67.23
2023-05-10T11:00:29.923Z,66.28
2023-05-10T11:03:07.407Z,65.00
2023-05-10T11:05:42.384Z,64.84
2023-05-10T11:08:19.215Z,63.93
2023-05-10T11:11:05.465Z,64.80
2023-05-10T11:13:42.779Z,64.21
2023-05-10T11:16:20.387Z,65.49
2023-05-10T11:19:00.504Z,62.04
2023-05-10T11:21:34.733Z,63.87
2023-05-10T11:24:15.662Z,63.55
2023-05-10T11:26:52.315Z,64.21
2023-05-10T11:29:27.089Z,64.36
2023-05-10T11:32:01.157Z,63.73
2023-05-10T11:34:34.966Z,62.81
2023-05-10T11:37:08.228Z,63.61
2023-05-10T11:39:48.154Z,61.10
2023-05-10T11:42:21.023Z,63.14
2023-05-10T11:44:54.267Z,61.62
2023-05-10T11:47:27.461Z,62.88
2023-05-10T11:50:00.934Z,63.14
2023-05-10T11:52:38.098Z,62.12
2023-05-10T11:55:12.371Z,61.25
2023-05-10T11:57:46.848Z,61.66
2023-05-10T12:00:19.921Z,60.49
2023-05-10T12:02:53.077Z,62.21
2023-05-10T12:05:26.356Z,62.46
2023-05-10T12:08:13.184Z,61.87
2023-05-10T12:10:47.622Z,60.19
2023-05-10T12:13:22.217Z,61.61
2023-05-10T12:19:09.893Z,64.02
2023-05-10T12:21:43.515Z,60.17
2023-05-10T12:24:18.662Z,62.21
2023-05-10T12:26:53.134Z,60.99
2023-05-10T12:29:25.941Z,60.34
2023-05-10T12:32:00.970Z,60.33
2023-05-10T12:34:35.899Z,59.07
2023-05-10T12:37:09.096Z,60.90
2023-05-10T12:39:43.068Z,62.17
2023-05-10T12:42:17.205Z,60.45
2023-05-10T12:44:50.178Z,61.44
2023-05-10T12:47:22.963Z,61.64
2023-05-10T12:49:55.815Z,60.59
2023-05-10T12:52:28.721Z,61.59
2023-05-10T12:55:02.189Z,62.59
2023-05-10T12:57:36.430Z,60.00
2023-05-10T13:00:10.479Z,60.38
2023-05-10T13:02:43.380Z,62.26
2023-05-10T13:05:16.186Z,61.83
2023-05-10T13:07:49.354Z,60.01
2023-05-10T13:10:23.467Z,57.31
2023-05-10T13:12:57.747Z,59.53
2023-05-10T13:15:30.574Z,59.05
2023-05-10T13:18:03.510Z,58.59
2023-05-10T13:20:36.580Z,59.71
2023-05-10T13:23:09.405Z,58.03
2023-05-10T13:25:42.246Z,58.06
2023-05-10T13:28:16.375Z,57.47
2023-05-10T13:30:49.171Z,56.15
2023-05-10T13:33:21.970Z,56.89
2023-05-10T13:35:55.848Z,55.58
2023-05-10T13:38:28.807Z,56.16
2023-05-10T13:41:01.958Z,54.42
2023-05-10T13:43:36.921Z,53.20
2023-05-10T13:46:10.352Z,53.33
2023-05-10T13:48:43.197Z,54.03
2023-05-10T13:51:16.004Z,51.60
2023-05-10T13:53:48.976Z,52.99
2023-05-10T13:56:21.873Z,52.09
2023-05-10T13:58:56.104Z,54.15
2023-05-10T14:01:28.931Z,53.10
2023-05-10T14:04:02.036Z,52.30
2023-05-10T14:06:34.926Z,55.12
2023-05-10T14:09:07.853Z,55.80
2023-05-10T14:11:43.920Z,54.57
2023-05-10T14:14:18.117Z,56.42
2023-05-10T14:16:50.956Z,55.03
2023-05-10T14:19:23.795Z,56.08
2023-05-10T14:21:56.549Z,58.22
2023-05-10T14:24:29.514Z,61.31
2023-05-10T14:27:02.352Z,58.05
2023-05-10T14:29:36.560Z,56.50
2023-05-10T14:32:09.437Z,53.79
2023-05-10T14:34:42.207Z,51.04
2023-05-10T14:37:16.039Z,48.92
2023-05-10T14:39:48.937Z,52.59
2023-05-10T14:42:22.224Z,47.29
2023-05-10T14:44:56.407Z,46.57
2023-05-10T14:47:29.260Z,45.75
2023-05-10T14:50:02.806Z,50.70
2023-05-10T14:52:35.842Z,50.04
2023-05-10T14:55:09.818Z,50.08
2023-05-10T14:57:43.039Z,54.17
2023-05-10T15:00:20.160Z,47.16
2023-05-10T15:02:54.084Z,43.60
2023-05-10T15:05:27.544Z,44.73
2023-05-10T15:08:00.872Z,42.75
2023-05-10T15:10:34.624Z,44.01
2023-05-10T15:13:07.525Z,45.92
2023-05-10T15:15:41.705Z,45.90
2023-05-10T15:18:15.060Z,50.85
2023-05-10T15:20:47.877Z,49.59
2023-05-10T15:23:20.719Z,52.36
2023-05-10T15:25:56.340Z,49.19
2023-05-10T15:28:29.333Z,50.17
2023-05-10T15:31:03.894Z,49.00
2023-05-10T15:33:37.973Z,47.72
2023-05-10T15:36:10.960Z,54.18
2023-05-10T15:38:43.991Z,53.82
2023-05-10T15:41:16.793Z,49.87
2023-05-10T15:43:49.869Z,45.50
2023-05-10T15:46:24.122Z,45.22
2023-05-10T15:48:57.185Z,47.51
2023-05-10T15:51:29.988Z,47.48
2023-05-10T15:54:07.678Z,49.47
2023-05-10T15:56:42.224Z,49.36
2023-05-10T15:59:14.984Z,49.92
2023-05-10T16:01:49.716Z,46.79
2023-05-10T16:04:24.275Z,44.06
2023-05-10T16:06:57.157Z,40.83
2023-05-10T16:09:30.074Z,42.16
2023-05-10T16:12:03.378Z,39.15
2023-05-10T16:14:36.292Z,40.95
2023-05-10T16:17:11.561Z,44.88
2023-05-10T16:19:44.519Z,46.16
2023-05-10T16:22:17.458Z,48.39
2023-05-10T16:24:53.488Z,45.61
2023-05-10T16:27:28.575Z,47.54
2023-05-10T16:30:01.558Z,49.01
2023-05-10T16:32:36.085Z,48.53
2023-05-10T16:35:10.048Z,48.90
2023-05-10T16:37:42.820Z,48.04
2023-05-10T16:40:15.754Z,49.85
2023-05-10T16:42:48.617Z,49.75
2023-05-10T16:45:21.439Z,49.08
2023-05-10T16:47:55.956Z,51.02
2023-05-10T16:50:28.975Z,52.54
2023-05-10T16:53:01.939Z,54.71
2023-05-10T16:55:34.994Z,55.38
2023-05-10T16:58:07.818Z,57.56
2023-05-10T17:00:40.610Z,54.06
2023-05-10T17:03:15.219Z,55.29
2023-05-10T17:05:48.215Z,57.59
2023-05-10T17:08:21.510Z,57.35
2023-05-10T17:10:54.343Z,60.33
2023-05-10T17:13:27.820Z,60.00
2023-05-10T17:16:03.535Z,61.85
2023-05-10T17:18:37.967Z,56.67
2023-05-10T17:21:11.392Z,56.00
2023-05-10T17:23:44.845Z,46.14
2023-05-10T17:26:17.628Z,49.33
2023-05-10T17:28:50.442Z,49.71
2023-05-10T17:31:23.491Z,40.22
2023-05-10T17:33:58.087Z,40.15
2023-05-10T17:36:30.907Z,44.83
2023-05-10T17:39:04.511Z,49.39
2023-05-10T17:41:37.527Z,47.75
2023-05-10T17:44:10.350Z,49.78
2023-05-10T17:46:43.383Z,51.49
2023-05-10T17:49:17.928Z,50.59
2023-05-10T17:51:51.096Z,53.34
2023-05-10T17:54:24.012Z,55.57
2023-05-10T17:56:57.988Z,52.33
2023-05-10T17:59:30.928Z,53.89
2023-05-10T18:02:03.938Z,54.46
2023-05-10T18:04:59.968Z,55.43
2023-05-10T18:07:33.343Z,56.08
2023-05-10T18:10:07.251Z,57.08
2023-05-10T18:12:40.063Z,58.49
2023-05-10T18:15:12.964Z,56.72
2023-05-10T18:17:45.881Z,56.66
2023-05-10T18:20:20.371Z,57.59
2023-05-10T18:22:53.026Z,58.31
2023-05-10T18:25:26.064Z,58.93
2023-05-10T18:27:59.195Z,59.19
2023-05-10T18:30:32.040Z,61.35
2023-05-10T18:33:04.966Z,61.04
2023-05-10T18:35:40.044Z,62.26
2023-05-10T18:38:13.423Z,63.15
2023-05-10T18:40:46.325Z,64.49
2023-05-10T18:43:19.172Z,66.16
2023-05-10T18:45:52.440Z,64.88
2023-05-10T18:48:25.473Z,66.41
2023-05-10T18:50:59.732Z,69.92
2023-05-10T18:53:33.699Z,68.44
2023-05-10T18:56:07.119Z,68.89
2023-05-10T18:58:40.184Z,70.20
2023-05-10T19:01:13.101Z,70.51
2023-05-10T19:03:46.979Z,70.71
2023-05-10T19:06:21.253Z,70.71
2023-05-10T19:08:54.308Z,70.62
2023-05-10T19:11:27.282Z,71.92
2023-05-10T19:14:00.124Z,71.07
2023-05-10T19:16:35.806Z,69.38
2023-05-10T19:19:09.102Z,68.97
2023-05-10T19:21:43.495Z,70.11
2023-05-10T19:24:16.601Z,69.86
2023-05-10T19:26:49.382Z,71.58
2023-05-10T19:29:23.030Z,71.52
2023-05-10T19:31:56.148Z,70.40
2023-05-10T19:34:29.063Z,69.85
2023-05-10T19:37:03.617Z,69.85
2023-05-10T19:39:36.592Z,70.83
2023-05-10T19:42:09.757Z,72.66
2023-05-10T19:44:42.714Z,72.54
2023-05-10T19:47:15.588Z,72.57
2023-05-10T19:49:48.589Z,72.42
2023-05-10T19:52:22.846Z,70.44
2023-05-10T19:54:55.722Z,73.28
2023-05-10T19:57:28.532Z,68.71
2023-05-10T20:00:01.421Z,71.10
2023-05-10T20:02:34.655Z,72.87
2023-05-10T20:05:08.755Z,71.90
2023-05-10T20:07:43.023Z,71.28
2023-05-10T20:10:17.583Z,71.53
2023-05-10T20:12:52.288Z,70.64
2023-05-10T20:15:25.844Z,69.75
2023-05-10T20:17:58.702Z,72.00
2023-05-10T20:20:31.734Z,73.42
2023-05-10T20:23:06.026Z,74.96
2023-05-10T20:25:38.879Z,73.84
2023-05-10T20:28:13.072Z,73.68
2023-05-10T20:30:45.941Z,74.53
2023-05-10T20:33:19.025Z,74.67
2023-05-10T20:35:52.311Z,75.37
2023-05-10T20:38:26.555Z,76.51
2023-05-10T20:40:59.354Z,75.91
2023-05-10T20:43:32.532Z,75.21
2023-05-10T20:46:06.482Z,76.04
2023-05-10T20:48:39.472Z,77.13
2023-05-10T20:51:12.356Z,77.96
2023-05-10T20:53:46.627Z,76.88
2023-05-10T20:56:19.635Z,77.68
2023-05-10T20:58:52.485Z,77.91
2023-05-10T21:01:26.353Z,79.08
2023-05-10T21:03:59.217Z,77.16
2023-05-10T21:06:32.446Z,78.13
2023-05-10T21:09:07.046Z,77.57
2023-05-10T21:11:39.729Z,78.44
2023-05-10T21:14:12.572Z,78.56
2023-05-10T21:16:45.418Z,76.89
2023-05-10T21:19:18.341Z,78.18
2023-05-10T21:21:51.201Z,77.74
2023-05-10T21:24:25.671Z,79.00
2023-05-10T21:26:58.494Z,78.70
2023-05-10T21:29:31.427Z,77.50
2023-05-10T21:32:04.345Z,77.33
2023-05-10T21:34:37.638Z,79.20
2023-05-10T21:37:10.676Z,79.28
2023-05-10T21:39:44.862Z,80.39
2023-05-10T21:42:17.753Z,79.18
2023-05-10T21:44:50.519Z,79.46
2023-05-10T21:47:23.364Z,81.27
2023-05-10T21:49:56.194Z,80.82
2023-05-10T21:52:29.012Z,81.25
2023-05-10T21:55:04.186Z,79.92
2023-05-10T21:57:37.524Z,80.44
2023-05-10T22:00:11.805Z,81.36
2023-05-10T22:02:45.541Z,82.79
2023-05-10T22:05:18.608Z,82.30
2023-05-10T22:07:51.380Z,82.40
2023-05-10T22:10:25.632Z,83.20
2023-05-10T22:12:59.580Z,79.74
2023-05-10T22:15:35.590Z,82.23
2023-05-10T22:18:09.301Z,81.35
2023-05-10T22:20:43.357Z,80.97
2023-05-10T22:23:16.301Z,83.27
2023-05-10T22:25:50.497Z,82.94
2023-05-10T22:28:23.263Z,82.24
2023-05-10T22:30:56.129Z,82.65
2023-05-10T22:33:29.029Z,82.63
2023-05-10T22:36:01.883Z,82.92
2023-05-10T22:38:34.914Z,83.78
2023-05-10T22:41:09.201Z,83.73
2023-05-10T22:43:42.093Z,84.32
2023-05-10T22:46:15.219Z,84.72
2023-05-10T22:48:49.247Z,84.88
2023-05-10T22:51:22.418Z,83.59
2023-05-10T22:53:55.358Z,84.72
2023-05-10T22:56:30.031Z,84.86
2023-05-10T22:59:02.955Z,85.66
2023-05-10T23:01:35.894Z,83.45
2023-05-10T23:04:08.771Z,84.77
2023-05-10T23:06:41.587Z,84.90
2023-05-10T23:09:14.414Z,87.29
2023-05-10T23:11:48.709Z,86.52
2023-05-10T23:14:21.683Z,85.95
2023-05-10T23:16:54.479Z,85.96
2023-05-10T23:19:27.280Z,86.46
2023-05-10T23:22:00.549Z,86.71
2023-05-10T23:24:33.901Z,83.64
2023-05-10T23:27:08.121Z,85.78
2023-05-10T23:29:41.032Z,88.77
2023-05-10T23:32:13.881Z,88.30
2023-05-10T23:34:46.757Z,89.03
2023-05-10T23:37:19.592Z,89.27
2023-05-10T23:39:52.628Z,86.68
2023-05-10T23:42:26.968Z,87.81
2023-05-10T23:44:59.753Z,88.48
2023-05-10T23:47:32.763Z,87.80
2023-05-10T23:50:06.442Z,87.58
2023-05-10T23:52:39.283Z,88.95
2023-05-10T23:55:12.540Z,89.32
2023-05-10T23:57:46.798Z,89.74
